sensor_id;sensor_type;location;lat;lon;timestamp;pressure;altitude;pressure_sealevel;temperature;humidity
4598;BME280;62772;48.646;8.906;2023-01-25T00:01:07;97759.50;;;-0.18;100.00
4598;BME280;62772;48.646;8.906;2023-01-25T00:06:07;97758.47;;;-0.04;100.00
4598;BME280;62772;48.646;8.906;2023-01-25T00:11:08;97748.19;;;-0.12;100.00
4598;BME280;62772;48.646;8.906;2023-01-25T00:16:08;97746.97;;;-0.16;100.00
4598;BME280;62772;48.646;8.906;2023-01-25T00:21:20;97748.63;;;-0.22;100.00
4598;BME280;62772;48.646;8.906;2023-01-25T00:26:21;97738.31;;;-0.16;100.00
4598;BME280;62772;48.646;8.906;2023-01-25T00:36:40;97715.09;;;-0.26;100.00
4598;BME280;62772;48.646;8.906;2023-01-25T00:41:41;97716.13;;;-0.21;100.00
4598;BME280;62772;48.646;8.906;2023-01-25T00:46:42;97718.75;;;-0.21;100.00
4598;BME280;62772;48.646;8.906;2023-01-25T00:51:42;97724.38;;;-0.17;100.00
4598;BME280;62772;48.646;8.906;2023-01-25T00:56:43;97734.50;;;-0.21;100.00
4598;BME280;62772;48.646;8.906;2023-01-25T01:01:45;97719.75;;;-0.28;100.00
4598;BME280;62772;48.646;8.906;2023-01-25T01:06:45;97712.06;;;-0.23;100.00
4598;BME280;62772;48.646;8.906;2023-01-25T01:11:47;97708.03;;;-0.19;100.00
4598;BME280;62772;48.646;8.906;2023-01-25T01:16:48;97705.41;;;-0.26;100.00
4598;BME280;62772;48.646;8.906;2023-01-25T01:21:48;97714.50;;;-0.22;100.00
4598;BME280;62772;48.646;8.906;2023-01-25T01:26:48;97713.69;;;-0.35;100.00
4598;BME280;62772;48.646;8.906;2023-01-25T01:31:50;97711.88;;;-0.28;100.00
4598;BME280;62772;48.646;8.906;2023-01-25T01:36:57;97718.94;;;-0.35;100.00
4598;BME280;62772;48.646;8.906;2023-01-25T01:41:58;97706.84;;;-0.37;100.00
4598;BME280;62772;48.646;8.906;2023-01-25T01:46:59;97717.91;;;-0.21;100.00
4598;BME280;62772;48.646;8.906;2023-01-25T01:52:08;97716.13;;;-0.34;100.00
4598;BME280;62772;48.646;8.906;2023-01-25T01:57:16;97708.03;;;-0.32;100.00
4598;BME280;62772;48.646;8.906;2023-01-25T02:02:18;97707.63;;;-0.29;100.00
4598;BME280;62772;48.646;8.906;2023-01-25T02:07:22;97705.41;;;-0.26;100.00
4598;BME280;62772;48.646;8.906;2023-01-25T02:12:24;97707.03;;;-0.25;100.00
4598;BME280;62772;48.646;8.906;2023-01-25T02:17:28;97716.13;;;-0.34;100.00
4598;BME280;62772;48.646;8.906;2023-01-25T02:22:50;97707.69;;;-0.43;100.00
4598;BME280;62772;48.646;8.906;2023-01-25T02:27:56;97705.41;;;-0.26;100.00
4598;BME280;62772;48.646;8.906;2023-01-25T02:33:00;97693.72;;;-0.37;100.00
4598;BME280;62772;48.646;8.906;2023-01-25T02:38:01;97691.47;;;-0.26;100.00
4598;BME280;62772;48.646;8.906;2023-01-25T02:43:02;97685.44;;;-0.27;100.00
4598;BME280;62772;48.646;8.906;2023-01-25T02:48:03;97680.59;;;-0.30;100.00
4598;BME280;62772;48.646;8.906;2023-01-25T02:53:03;97684.78;;;-0.15;100.00
4598;BME280;62772;48.646;8.906;2023-01-25T02:58:04;97689.03;;;-0.21;100.00
4598;BME280;62772;48.646;8.906;2023-01-25T03:03:06;97681.13;;;-0.14;100.00
4598;BME280;62772;48.646;8.906;2023-01-25T03:08:07;97686.59;;;-0.09;100.00
4598;BME280;62772;48.646;8.906;2023-01-25T03:13:08;97670.66;;;-0.21;100.00
4598;BME280;62772;48.646;8.906;2023-01-25T03:18:08;97664.59;;;-0.22;100.00
4598;BME280;62772;48.646;8.906;2023-01-25T03:23:09;97658.91;;;-0.12;100.00
4598;BME280;62772;48.646;8.906;2023-01-25T03:28:11;97654.03;;;-0.08;100.00
4598;BME280;62772;48.646;8.906;2023-01-25T03:33:13;97655.06;;;-0.09;100.00
4598;BME280;62772;48.646;8.906;2023-01-25T03:38:14;97638.69;;;-0.05;100.00
4598;BME280;62772;48.646;8.906;2023-01-25T03:43:15;97640.31;;;-0.10;100.00
4598;BME280;62772;48.646;8.906;2023-01-25T03:48:15;97634.28;;;-0.11;100.00
4598;BME280;62772;48.646;8.906;2023-01-25T03:53:16;97638.47;;;-0.03;100.00
4598;BME280;62772;48.646;8.906;2023-01-25T03:58:29;97639.69;;;-0.06;100.00
4598;BME280;62772;48.646;8.906;2023-01-25T04:03:31;97635.13;;;-0.24;100.00
4598;BME280;62772;48.646;8.906;2023-01-25T04:08:33;97642.16;;;-0.11;100.00
4598;BME280;62772;48.646;8.906;2023-01-25T04:13:38;97634.28;;;-0.11;100.00
4598;BME280;62772;48.646;8.906;2023-01-25T04:18:42;97629.81;;;-0.10;100.00
4598;BME280;62772;48.646;8.906;2023-01-25T04:23:43;97639.09;;;-0.08;100.00
4598;BME280;62772;48.646;8.906;2023-01-25T04:28:44;97636.66;;;-0.03;100.00
4598;BME280;62772;48.646;8.906;2023-01-25T04:33:45;97631.88;;;-0.19;100.00
4598;BME280;62772;48.646;8.906;2023-01-25T04:38:48;97627.59;;;-0.13;100.00
4598;BME280;62772;48.646;8.906;2023-01-25T04:43:49;97631.63;;;-0.11;100.00
4598;BME280;62772;48.646;8.906;2023-01-25T04:48:50;97621.53;;;-0.07;100.00
4598;BME280;62772;48.646;8.906;2023-01-25T04:53:51;97624.16;;;-0.07;100.00
4598;BME280;62772;48.646;8.906;2023-01-25T04:58:52;97627.34;;;-0.05;100.00
4598;BME280;62772;48.646;8.906;2023-01-25T05:03:53;97627.56;;;0.00;100.00
4598;BME280;62772;48.646;8.906;2023-01-25T05:09:09;97618.31;;;-0.09;100.00
4598;BME280;62772;48.646;8.906;2023-01-25T05:14:10;97608.56;;;-0.02;100.00
4598;BME280;62772;48.646;8.906;2023-01-25T05:19:10;97613.00;;;-0.03;100.00
4598;BME280;62772;48.646;8.906;2023-01-25T05:24:18;97617.19;;;0.12;100.00
4598;BME280;62772;48.646;8.906;2023-01-25T05:29:18;97615.44;;;-0.01;100.00
4598;BME280;62772;48.646;8.906;2023-01-25T05:34:25;97616.97;;;0.13;100.00
4598;BME280;62772;48.646;8.906;2023-01-25T05:39:26;97617.19;;;0.12;100.00
4598;BME280;62772;48.646;8.906;2023-01-25T05:44:30;97615.78;;;0.09;100.00
4598;BME280;62772;48.646;8.906;2023-01-25T05:49:30;97617.66;;;0.02;100.00
4598;BME280;62772;48.646;8.906;2023-01-25T05:54:32;97610.91;;;0.13;100.00
4598;BME280;62772;48.646;8.906;2023-01-25T05:59:37;97604.63;;;0.14;100.00
4598;BME280;62772;48.646;8.906;2023-01-25T06:04:41;97608.94;;;0.02;100.00
4598;BME280;62772;48.646;8.906;2023-01-25T06:09:43;97602.25;;;0.06;100.00
4598;BME280;62772;48.646;8.906;2023-01-25T06:14:44;97608.94;;;0.02;100.00
4598;BME280;62772;48.646;8.906;2023-01-25T06:19:46;97603.09;;;-0.01;100.00
4598;BME280;62772;48.646;8.906;2023-01-25T06:25:03;97601.50;;;-0.02;100.00
4598;BME280;62772;48.646;8.906;2023-01-25T06:30:03;97600.22;;;0.08;100.00
4598;BME280;62772;48.646;8.906;2023-01-25T06:35:04;97601.69;;;0.04;100.00
4598;BME280;62772;48.646;8.906;2023-01-25T06:40:06;97602.00;;;0.14;100.00
4598;BME280;62772;48.646;8.906;2023-01-25T06:45:07;97596.16;;;0.12;100.00
4598;BME280;62772;48.646;8.906;2023-01-25T06:50:08;97600.22;;;0.08;100.00
4598;BME280;62772;48.646;8.906;2023-01-25T06:55:09;97600.09;;;-0.04;100.00
4598;BME280;62772;48.646;8.906;2023-01-25T07:00:14;97591.13;;;0.10;100.00
4598;BME280;62772;48.646;8.906;2023-01-25T07:05:15;97593.31;;;0.13;100.00
4598;BME280;62772;48.646;8.906;2023-01-25T07:10:15;97588.66;;;0.15;100.00
4598;BME280;62772;48.646;8.906;2023-01-25T07:15:16;97566.50;;;-0.34;100.00
4598;BME280;62772;48.646;8.906;2023-01-25T07:20:16;97567.66;;;-0.23;100.00
4598;BME280;62772;48.646;8.906;2023-01-25T07:25:16;97558.59;;;0.05;100.00
4598;BME280;62772;48.646;8.906;2023-01-25T07:30:17;97560.22;;;0.06;100.00
4598;BME280;62772;48.646;8.906;2023-01-25T07:35:20;97561.81;;;0.13;100.00
4598;BME280;62772;48.646;8.906;2023-01-25T07:40:21;97567.31;;;0.05;100.00
4598;BME280;62772;48.646;8.906;2023-01-25T07:45:25;97563.31;;;-0.04;100.00
4598;BME280;62772;48.646;8.906;2023-01-25T07:50:31;97558.81;;;0.03;100.00
4598;BME280;62772;48.646;8.906;2023-01-25T07:55:32;97561.38;;;-0.15;100.00
4598;BME280;62772;48.646;8.906;2023-01-25T08:00:33;97553.63;;;-0.04;100.00
4598;BME280;62772;48.646;8.906;2023-01-25T08:05:34;97555.53;;;-0.17;100.00
4598;BME280;62772;48.646;8.906;2023-01-25T08:10:34;97558.94;;;-0.17;100.00
4598;BME280;62772;48.646;8.906;2023-01-25T08:15:34;97557.53;;;-0.20;100.00
4598;BME280;62772;48.646;8.906;2023-01-25T08:20:35;97567.44;;;-0.22;100.00
4598;BME280;62772;48.646;8.906;2023-01-25T08:25:37;97561.91;;;-0.07;100.00
4598;BME280;62772;48.646;8.906;2023-01-25T08:30:38;97563.28;;;0.03;100.00
4598;BME280;62772;48.646;8.906;2023-01-25T08:35:39;97562.75;;;-0.06;100.00
4598;BME280;62772;48.646;8.906;2023-01-25T08:40:39;97560.22;;;0.06;100.00
4598;BME280;62772;48.646;8.906;2023-01-25T08:45:39;97556.81;;;0.05;100.00
4598;BME280;62772;48.646;8.906;2023-01-25T08:50:46;97543.00;;;0.16;100.00
4598;BME280;62772;48.646;8.906;2023-01-25T08:55:46;97540.53;;;0.22;100.00
4598;BME280;62772;48.646;8.906;2023-01-25T09:00:47;97546.19;;;0.18;100.00
4598;BME280;62772;48.646;8.906;2023-01-25T09:05:48;97533.16;;;0.05;100.00
4598;BME280;62772;48.646;8.906;2023-01-25T09:10:48;97525.28;;;0.05;100.00
4598;BME280;62772;48.646;8.906;2023-01-25T09:15:49;97526.88;;;0.06;100.00
4598;BME280;62772;48.646;8.906;2023-01-25T09:20:49;97526.59;;;0.21;100.00
4598;BME280;62772;48.646;8.906;2023-01-25T09:25:57;97531.84;;;0.21;100.00
4598;BME280;62772;48.646;8.906;2023-01-25T09:31:03;97519.97;;;0.12;100.00
4598;BME280;62772;48.646;8.906;2023-01-25T09:36:27;97516.25;;;-0.06;100.00
4598;BME280;62772;48.646;8.906;2023-01-25T09:46:55;97521.50;;;-0.06;100.00
4598;BME280;62772;48.646;8.906;2023-01-25T09:57:29;97527.34;;;-0.04;100.00
4598;BME280;62772;48.646;8.906;2023-01-25T10:07:52;97517.91;;;-0.11;100.00
4598;BME280;62772;48.646;8.906;2023-01-25T10:12:54;97507.75;;;-0.01;100.00
4598;BME280;62772;48.646;8.906;2023-01-25T10:18:10;97510.38;;;-0.01;100.00
4598;BME280;62772;48.646;8.906;2023-01-25T10:23:25;97507.59;;;-0.06;100.00
4598;BME280;62772;48.646;8.906;2023-01-25T10:33:38;97503.13;;;-0.06;100.00
4598;BME280;62772;48.646;8.906;2023-01-25T10:38:45;97488.00;;;-0.10;100.00
4598;BME280;62772;48.646;8.906;2023-01-25T10:43:46;97485.81;;;-0.13;100.00
4598;BME280;62772;48.646;8.906;2023-01-25T10:48:47;97479.00;;;0.04;100.00
4598;BME280;62772;48.646;8.906;2023-01-25T10:53:58;97477.28;;;-0.09;100.00
4598;BME280;62772;48.646;8.906;2023-01-25T10:59:23;97460.09;;;-0.05;100.00
4598;BME280;62772;48.646;8.906;2023-01-25T11:04:30;97456.16;;;0.11;100.00
4598;BME280;62772;48.646;8.906;2023-01-25T11:09:36;97462.47;;;0.04;100.00
4598;BME280;62772;48.646;8.906;2023-01-25T11:14:37;97442.63;;;-0.17;100.00
4598;BME280;62772;48.646;8.906;2023-01-25T11:19:39;97441.22;;;-0.20;100.00
4598;BME280;62772;48.646;8.906;2023-01-25T11:24:42;97442.16;;;-0.08;100.00
4598;BME280;62772;48.646;8.906;2023-01-25T11:29:42;97443.72;;;-0.07;100.00
4598;BME280;62772;48.646;8.906;2023-01-25T11:34:46;97450.41;;;-0.04;100.00
4598;BME280;62772;48.646;8.906;2023-01-25T11:45:18;97428.09;;;-0.20;100.00
4598;BME280;62772;48.646;8.906;2023-01-25T11:50:36;97419.22;;;-0.19;100.00
4598;BME280;62772;48.646;8.906;2023-01-25T11:55:55;97410.50;;;-0.20;100.00
4598;BME280;62772;48.646;8.906;2023-01-25T12:06:53;97388.06;;;-0.15;100.00
4598;BME280;62772;48.646;8.906;2023-01-25T12:17:30;97367.28;;;-0.17;100.00
4598;BME280;62772;48.646;8.906;2023-01-25T12:28:09;97332.81;;;-0.27;100.00
4598;BME280;62772;48.646;8.906;2023-01-25T12:33:20;97331.47;;;-0.11;100.00
4598;BME280;62772;48.646;8.906;2023-01-25T12:38:28;97310.63;;;-0.06;100.00
4598;BME280;62772;48.646;8.906;2023-01-25T12:43:36;97306.09;;;0.01;100.00
4598;BME280;62772;48.646;8.906;2023-01-25T12:48:41;97302.38;;;0.09;100.00
4598;BME280;62772;48.646;8.906;2023-01-25T12:53:44;97298.00;;;0.03;100.00
4598;BME280;62772;48.646;8.906;2023-01-25T12:59:10;97298.53;;;0.11;100.00
4598;BME280;62772;48.646;8.906;2023-01-25T13:10:00;97274.94;;;0.05;100.00
4598;BME280;62772;48.646;8.906;2023-01-25T13:25:41;97257.34;;;0.24;100.00
4598;BME280;62772;48.646;8.906;2023-01-25T13:30:51;97247.22;;;0.09;100.00
4598;BME280;62772;48.646;8.906;2023-01-25T13:35:52;97245.63;;;-0.11;100.00
4598;BME280;62772;48.646;8.906;2023-01-25T13:41:10;97237.88;;;-0.06;100.00
4598;BME280;62772;48.646;8.906;2023-01-25T13:46:14;97233.22;;;-0.04;100.00
4598;BME280;62772;48.646;8.906;2023-01-25T13:51:16;97216.53;;;-0.09;100.00
4598;BME280;62772;48.646;8.906;2023-01-25T13:56:32;97207.41;;;-0.25;100.00
4598;BME280;62772;48.646;8.906;2023-01-25T14:01:34;97218.06;;;-0.02;100.00
4598;BME280;62772;48.646;8.906;2023-01-25T14:06:37;97206.81;;;0.10;100.00
4598;BME280;62772;48.646;8.906;2023-01-25T14:11:50;97217.28;;;0.28;100.00
4598;BME280;62772;48.646;8.906;2023-01-25T14:17:00;97203.41;;;0.40;100.00
4598;BME280;62772;48.646;8.906;2023-01-25T14:22:23;97199.72;;;0.29;100.00
4598;BME280;62772;48.646;8.906;2023-01-25T14:27:25;97198.88;;;0.28;100.00
4598;BME280;62772;48.646;8.906;2023-01-25T14:32:26;97204.38;;;0.27;100.00
4598;BME280;62772;48.646;8.906;2023-01-25T14:37:29;97204.47;;;0.20;100.00
4598;BME280;62772;48.646;8.906;2023-01-25T14:42:31;97204.31;;;0.15;100.00
4598;BME280;62772;48.646;8.906;2023-01-25T14:47:31;97207.38;;;0.12;100.00
4598;BME280;62772;48.646;8.906;2023-01-25T14:52:32;97206.06;;;0.21;100.00
4598;BME280;62772;48.646;8.906;2023-01-25T14:57:35;97201.47;;;0.16;100.00
4598;BME280;62772;48.646;8.906;2023-01-25T15:02:39;97194.25;;;-0.07;100.00
4598;BME280;62772;48.646;8.906;2023-01-25T15:13:18;97187.81;;;0.26;100.00
4598;BME280;62772;48.646;8.906;2023-01-25T15:18:46;97173.13;;;0.37;100.00
4598;BME280;62772;48.646;8.906;2023-01-25T15:23:48;97171.16;;;-0.16;100.00
4598;BME280;62772;48.646;8.906;2023-01-25T15:28:51;97168.38;;;-0.03;100.00
4598;BME280;62772;48.646;8.906;2023-01-25T15:33:53;97153.84;;;-0.06;100.00
4598;BME280;62772;48.646;8.906;2023-01-25T15:38:53;97144.38;;;-0.07;100.00
4598;BME280;62772;48.646;8.906;2023-01-25T15:43:54;97145.00;;;0.07;100.00
4598;BME280;62772;48.646;8.906;2023-01-25T15:48:54;97134.63;;;0.12;100.00
4598;BME280;62772;48.646;8.906;2023-01-25T15:53:55;97123.44;;;0.05;100.00
4598;BME280;62772;48.646;8.906;2023-01-25T15:59:00;97120.50;;;-0.05;100.00
4598;BME280;62772;48.646;8.906;2023-01-25T16:04:04;97110.66;;;-0.10;100.00
4598;BME280;62772;48.646;8.906;2023-01-25T16:14:12;97092.78;;;-0.01;100.00
4598;BME280;62772;48.646;8.906;2023-01-25T16:19:14;97091.38;;;0.27;100.00
4598;BME280;62772;48.646;8.906;2023-01-25T16:24:16;97090.59;;;0.26;100.00
4598;BME280;62772;48.646;8.906;2023-01-25T16:29:16;97094.41;;;0.30;100.00
4598;BME280;62772;48.646;8.906;2023-01-25T16:34:17;97089.97;;;0.12;100.00
4598;BME280;62772;48.646;8.906;2023-01-25T16:39:21;97083.25;;;-0.44;100.00
4598;BME280;62772;48.646;8.906;2023-01-25T16:44:22;97077.03;;;-0.31;100.00
4598;BME280;62772;48.646;8.906;2023-01-25T16:49:24;97078.19;;;0.03;100.00
4598;BME280;62772;48.646;8.906;2023-01-25T16:54:29;97087.78;;;0.09;100.00
4598;BME280;62772;48.646;8.906;2023-01-25T16:59:30;97088.47;;;0.05;100.00
4598;BME280;62772;48.646;8.906;2023-01-25T17:04:30;97072.59;;;-0.01;100.00
4598;BME280;62772;48.646;8.906;2023-01-25T17:09:31;97075.78;;;0.02;100.00
4598;BME280;62772;48.646;8.906;2023-01-25T17:14:32;97075.78;;;0.02;100.00
4598;BME280;62772;48.646;8.906;2023-01-25T17:19:32;97079.38;;;0.19;100.00
4598;BME280;62772;48.646;8.906;2023-01-25T17:24:33;97070.69;;;-0.24;100.00
4598;BME280;62772;48.646;8.906;2023-01-25T17:29:35;97063.16;;;-0.39;100.00
4598;BME280;62772;48.646;8.906;2023-01-25T17:34:35;97059.28;;;-0.17;100.00
4598;BME280;62772;48.646;8.906;2023-01-25T17:39:35;97061.31;;;-0.20;100.00
4598;BME280;62772;48.646;8.906;2023-01-25T17:44:36;97056.47;;;-0.04;100.00
4598;BME280;62772;48.646;8.906;2023-01-25T17:49:36;97047.59;;;-0.03;100.00
4598;BME280;62772;48.646;8.906;2023-01-25T17:54:37;97042.81;;;-0.25;100.00
4598;BME280;62772;48.646;8.906;2023-01-25T17:59:39;97036.34;;;-0.10;100.00
4598;BME280;62772;48.646;8.906;2023-01-25T18:04:39;97031.19;;;0.13;100.00
4598;BME280;62772;48.646;8.906;2023-01-25T18:09:40;97018.84;;;0.14;100.00
4598;BME280;62772;48.646;8.906;2023-01-25T18:14:40;97019.28;;;-0.01;100.00
4598;BME280;62772;48.646;8.906;2023-01-25T18:19:41;97020.03;;;-0.43;100.00
4598;BME280;62772;48.646;8.906;2023-01-25T18:24:45;97011.13;;;-0.11;100.00
4598;BME280;62772;48.646;8.906;2023-01-25T18:34:55;97020.28;;;-0.02;100.00
4598;BME280;62772;48.646;8.906;2023-01-25T18:39:56;96999.88;;;0.00;100.00
4598;BME280;62772;48.646;8.906;2023-01-25T18:44:56;96987.38;;;-0.16;100.00
4598;BME280;62772;48.646;8.906;2023-01-25T18:49:57;96982.28;;;0.01;100.00
4598;BME280;62772;48.646;8.906;2023-01-25T18:54:57;96979.44;;;0.02;100.00
4598;BME280;62772;48.646;8.906;2023-01-25T18:59:58;96978.75;;;0.07;100.00
4598;BME280;62772;48.646;8.906;2023-01-25T19:04:58;96977.13;;;-1.16;100.00
4598;BME280;62772;48.646;8.906;2023-01-25T19:09:59;96978.94;;;-0.49;100.00
4598;BME280;62772;48.646;8.906;2023-01-25T19:14:59;96969.81;;;-0.46;100.00
4598;BME280;62772;48.646;8.906;2023-01-25T19:20:00;96959.81;;;-0.26;100.00
4598;BME280;62772;48.646;8.906;2023-01-25T19:25:01;96962.56;;;-0.32;100.00
4598;BME280;62772;48.646;8.906;2023-01-25T19:30:02;96959.88;;;-1.05;100.00
4598;BME280;62772;48.646;8.906;2023-01-25T19:35:03;96946.50;;;-0.55;100.00
4598;BME280;62772;48.646;8.906;2023-01-25T19:40:04;96956.22;;;-0.55;100.00
4598;BME280;62772;48.646;8.906;2023-01-25T19:45:05;96953.03;;;-0.45;100.00
4598;BME280;62772;48.646;8.906;2023-01-25T19:50:06;96938.38;;;-0.34;100.00
4598;BME280;62772;48.646;8.906;2023-01-25T19:55:06;96941.88;;;-0.41;100.00
4598;BME280;62772;48.646;8.906;2023-01-25T20:00:07;96936.63;;;-0.41;100.00
4598;BME280;62772;48.646;8.906;2023-01-25T20:05:08;96928.97;;;-0.42;100.00
4598;BME280;62772;48.646;8.906;2023-01-25T20:10:09;96929.88;;;-0.48;100.00
4598;BME280;62772;48.646;8.906;2023-01-25T20:15:10;96924.53;;;-0.42;100.00
4598;BME280;62772;48.646;8.906;2023-01-25T20:20:11;96923.06;;;-0.26;100.00
4598;BME280;62772;48.646;8.906;2023-01-25T20:25:11;96923.56;;;-0.17;100.00
4598;BME280;62772;48.646;8.906;2023-01-25T20:30:12;96919.66;;;-0.14;100.00
4598;BME280;62772;48.646;8.906;2023-01-25T20:35:12;96914.56;;;-0.09;100.00
4598;BME280;62772;48.646;8.906;2023-01-25T20:40:13;96900.84;;;-0.23;100.00
4598;BME280;62772;48.646;8.906;2023-01-25T20:45:13;96889.31;;;-0.10;100.00
4598;BME280;62772;48.646;8.906;2023-01-25T20:50:16;96895.81;;;-0.37;100.00
4598;BME280;62772;48.646;8.906;2023-01-25T20:55:17;96897.88;;;-0.69;100.00
4598;BME280;62772;48.646;8.906;2023-01-25T21:00:17;96891.00;;;-0.40;100.00
4598;BME280;62772;48.646;8.906;2023-01-25T21:05:18;96878.56;;;-0.32;100.00
4598;BME280;62772;48.646;8.906;2023-01-25T21:10:18;96872.16;;;-0.48;100.00
4598;BME280;62772;48.646;8.906;2023-01-25T21:15:19;96856.06;;;-0.52;100.00
4598;BME280;62772;48.646;8.906;2023-01-25T21:20:19;96856.50;;;-0.43;100.00
4598;BME280;62772;48.646;8.906;2023-01-25T21:25:20;96855.72;;;-0.44;100.00
4598;BME280;62772;48.646;8.906;2023-01-25T21:30:20;96851.97;;;-0.24;100.00
4598;BME280;62772;48.646;8.906;2023-01-25T21:35:21;96849.09;;;-0.46;100.00
4598;BME280;62772;48.646;8.906;2023-01-25T21:40:21;96834.63;;;-0.49;100.00
4598;BME280;62772;48.646;8.906;2023-01-25T21:45:22;96838.34;;;-0.68;100.00
4598;BME280;62772;48.646;8.906;2023-01-25T21:50:41;96835.28;;;-1.26;100.00
4598;BME280;62772;48.646;8.906;2023-01-25T21:56:00;96832.09;;;-0.98;100.00
4598;BME280;62772;48.646;8.906;2023-01-25T22:01:00;96821.69;;;-0.74;100.00
4598;BME280;62772;48.646;8.906;2023-01-25T22:06:01;96815.03;;;-0.88;100.00
4598;BME280;62772;48.646;8.906;2023-01-25T22:11:03;96813.41;;;-0.35;100.00
4598;BME280;62772;48.646;8.906;2023-01-25T22:16:05;96810.09;;;-0.31;100.00
4598;BME280;62772;48.646;8.906;2023-01-25T22:21:13;96811.13;;;-0.20;100.00
4598;BME280;62772;48.646;8.906;2023-01-25T22:26:19;96809.50;;;-0.99;100.00
4598;BME280;62772;48.646;8.906;2023-01-25T22:31:22;96815.66;;;-1.05;100.00
4598;BME280;62772;48.646;8.906;2023-01-25T22:36:25;96807.06;;;-1.24;100.00
4598;BME280;62772;48.646;8.906;2023-01-25T22:41:30;96799.31;;;-1.86;100.00
4598;BME280;62772;48.646;8.906;2023-01-25T22:46:31;96797.66;;;-1.62;100.00
4598;BME280;62772;48.646;8.906;2023-01-25T22:51:32;96796.16;;;-1.58;100.00
4598;BME280;62772;48.646;8.906;2023-01-25T22:56:32;96794.66;;;-1.84;100.00
4598;BME280;62772;48.646;8.906;2023-01-25T23:01:33;96797.59;;;-1.43;100.00
4598;BME280;62772;48.646;8.906;2023-01-25T23:06:34;96796.81;;;-1.62;100.00
4598;BME280;62772;48.646;8.906;2023-01-25T23:11:36;96785.88;;;-1.11;100.00
4598;BME280;62772;48.646;8.906;2023-01-25T23:16:36;96774.38;;;-1.89;100.00
4598;BME280;62772;48.646;8.906;2023-01-25T23:21:37;96779.97;;;-2.04;100.00
4598;BME280;62772;48.646;8.906;2023-01-25T23:26:38;96779.44;;;-1.75;100.00
4598;BME280;62772;48.646;8.906;2023-01-25T23:31:40;96763.84;;;-1.52;100.00
4598;BME280;62772;48.646;8.906;2023-01-25T23:36:41;96765.94;;;-1.42;100.00
4598;BME280;62772;48.646;8.906;2023-01-25T23:41:41;96765.00;;;-1.78;100.00
4598;BME280;62772;48.646;8.906;2023-01-25T23:46:42;96760.94;;;-2.11;100.00
4598;BME280;62772;48.646;8.906;2023-01-25T23:51:42;96754.16;;;-2.19;100.00
4598;BME280;62772;48.646;8.906;2023-01-25T23:56:42;96740.00;;;-2.11;100.00
